sensor_id;sensor_type;location;lat;lon;timestamp;P1;durP1;ratioP1;P2;durP2;ratioP2
13032;SDS011;6583;42.632;23.298;2022-07-06T00:02:10;6.95;;;6.35;;
13032;SDS011;6583;42.632;23.298;2022-07-06T00:04:38;7.45;;;6.65;;
13032;SDS011;6583;42.632;23.298;2022-07-06T00:07:04;8.15;;;6.68;;
13032;SDS011;6583;42.632;23.298;2022-07-06T00:09:31;7.30;;;6.60;;
13032;SDS011;6583;42.632;23.298;2022-07-06T00:11:58;8.15;;;7.35;;
13032;SDS011;6583;42.632;23.298;2022-07-06T00:14:25;8.57;;;7.38;;
13032;SDS011;6583;42.632;23.298;2022-07-06T00:16:52;9.18;;;8.20;;
13032;SDS011;6583;42.632;23.298;2022-07-06T00:19:18;9.35;;;8.35;;
13032;SDS011;6583;42.632;23.298;2022-07-06T00:21:46;9.15;;;8.20;;
13032;SDS011;6583;42.632;23.298;2022-07-06T00:24:13;9.27;;;8.15;;
13032;SDS011;6583;42.632;23.298;2022-07-06T00:26:42;8.88;;;7.97;;
13032;SDS011;6583;42.632;23.298;2022-07-06T00:29:09;9.85;;;8.57;;
13032;SDS011;6583;42.632;23.298;2022-07-06T00:31:36;9.20;;;8.30;;
13032;SDS011;6583;42.632;23.298;2022-07-06T00:34:03;10.30;;;9.20;;
13032;SDS011;6583;42.632;23.298;2022-07-06T00:36:29;10.10;;;9.20;;
13032;SDS011;6583;42.632;23.298;2022-07-06T00:38:57;9.18;;;8.27;;
13032;SDS011;6583;42.632;23.298;2022-07-06T00:41:24;11.35;;;9.77;;
13032;SDS011;6583;42.632;23.298;2022-07-06T00:43:51;10.60;;;9.52;;
13032;SDS011;6583;42.632;23.298;2022-07-06T00:46:21;9.57;;;8.60;;
13032;SDS011;6583;42.632;23.298;2022-07-06T00:48:51;10.00;;;9.00;;
13032;SDS011;6583;42.632;23.298;2022-07-06T00:51:18;10.07;;;8.88;;
13032;SDS011;6583;42.632;23.298;2022-07-06T00:53:45;9.27;;;8.38;;
13032;SDS011;6583;42.632;23.298;2022-07-06T00:56:15;9.82;;;8.88;;
13032;SDS011;6583;42.632;23.298;2022-07-06T00:58:41;10.18;;;9.15;;
13032;SDS011;6583;42.632;23.298;2022-07-06T01:01:08;9.43;;;8.50;;
13032;SDS011;6583;42.632;23.298;2022-07-06T01:03:35;9.65;;;8.65;;
13032;SDS011;6583;42.632;23.298;2022-07-06T01:06:02;9.48;;;8.25;;
13032;SDS011;6583;42.632;23.298;2022-07-06T01:08:29;9.98;;;8.98;;
13032;SDS011;6583;42.632;23.298;2022-07-06T01:10:56;9.40;;;8.50;;
13032;SDS011;6583;42.632;23.298;2022-07-06T01:13:24;9.38;;;8.45;;
13032;SDS011;6583;42.632;23.298;2022-07-06T01:15:52;9.20;;;8.38;;
13032;SDS011;6583;42.632;23.298;2022-07-06T01:18:19;9.35;;;8.45;;
13032;SDS011;6583;42.632;23.298;2022-07-06T01:20:47;8.95;;;8.15;;
13032;SDS011;6583;42.632;23.298;2022-07-06T01:23:14;9.38;;;8.35;;
13032;SDS011;6583;42.632;23.298;2022-07-06T01:25:40;8.23;;;7.53;;
13032;SDS011;6583;42.632;23.298;2022-07-06T01:28:07;8.15;;;7.32;;
13032;SDS011;6583;42.632;23.298;2022-07-06T01:30:34;7.72;;;7.03;;
13032;SDS011;6583;42.632;23.298;2022-07-06T01:33:00;8.38;;;7.47;;
13032;SDS011;6583;42.632;23.298;2022-07-06T01:35:27;7.70;;;7.00;;
13032;SDS011;6583;42.632;23.298;2022-07-06T01:37:59;8.30;;;7.50;;
13032;SDS011;6583;42.632;23.298;2022-07-06T01:40:25;8.13;;;7.32;;
13032;SDS011;6583;42.632;23.298;2022-07-06T01:42:52;7.10;;;6.45;;
13032;SDS011;6583;42.632;23.298;2022-07-06T01:45:19;7.30;;;6.60;;
13032;SDS011;6583;42.632;23.298;2022-07-06T01:47:46;7.32;;;6.72;;
13032;SDS011;6583;42.632;23.298;2022-07-06T01:50:12;7.88;;;7.18;;
13032;SDS011;6583;42.632;23.298;2022-07-06T01:52:39;7.40;;;6.70;;
13032;SDS011;6583;42.632;23.298;2022-07-06T01:55:08;8.88;;;7.20;;
13032;SDS011;6583;42.632;23.298;2022-07-06T01:57:35;7.72;;;6.45;;
13032;SDS011;6583;42.632;23.298;2022-07-06T02:00:02;7.25;;;6.65;;
13032;SDS011;6583;42.632;23.298;2022-07-06T02:02:31;8.32;;;7.53;;
13032;SDS011;6583;42.632;23.298;2022-07-06T02:04:58;8.25;;;7.45;;
13032;SDS011;6583;42.632;23.298;2022-07-06T02:07:24;8.02;;;7.32;;
13032;SDS011;6583;42.632;23.298;2022-07-06T02:09:51;8.40;;;7.55;;
13032;SDS011;6583;42.632;23.298;2022-07-06T02:12:19;9.75;;;7.68;;
13032;SDS011;6583;42.632;23.298;2022-07-06T02:14:46;8.20;;;7.32;;
13032;SDS011;6583;42.632;23.298;2022-07-06T02:17:13;9.38;;;8.48;;
13032;SDS011;6583;42.632;23.298;2022-07-06T02:19:40;8.60;;;7.80;;
13032;SDS011;6583;42.632;23.298;2022-07-06T02:22:06;8.73;;;7.80;;
13032;SDS011;6583;42.632;23.298;2022-07-06T02:24:33;7.93;;;7.15;;
13032;SDS011;6583;42.632;23.298;2022-07-06T02:27:00;8.48;;;7.70;;
13032;SDS011;6583;42.632;23.298;2022-07-06T02:29:28;7.93;;;7.13;;
13032;SDS011;6583;42.632;23.298;2022-07-06T02:31:54;9.35;;;7.75;;
13032;SDS011;6583;42.632;23.298;2022-07-06T02:34:21;8.48;;;7.38;;
13032;SDS011;6583;42.632;23.298;2022-07-06T02:36:48;8.07;;;7.28;;
13032;SDS011;6583;42.632;23.298;2022-07-06T02:39:14;8.20;;;7.50;;
13032;SDS011;6583;42.632;23.298;2022-07-06T02:41:41;9.32;;;7.50;;
13032;SDS011;6583;42.632;23.298;2022-07-06T02:44:08;7.78;;;7.07;;
13032;SDS011;6583;42.632;23.298;2022-07-06T02:46:36;8.60;;;7.70;;
13032;SDS011;6583;42.632;23.298;2022-07-06T02:49:02;10.15;;;7.40;;
13032;SDS011;6583;42.632;23.298;2022-07-06T02:51:29;8.25;;;7.45;;
13032;SDS011;6583;42.632;23.298;2022-07-06T02:53:56;9.95;;;7.88;;
13032;SDS011;6583;42.632;23.298;2022-07-06T02:56:22;8.55;;;7.75;;
13032;SDS011;6583;42.632;23.298;2022-07-06T02:58:49;8.60;;;7.80;;
13032;SDS011;6583;42.632;23.298;2022-07-06T03:01:16;8.75;;;7.80;;
13032;SDS011;6583;42.632;23.298;2022-07-06T03:03:44;8.60;;;7.78;;
13032;SDS011;6583;42.632;23.298;2022-07-06T03:06:10;9.95;;;8.05;;
13032;SDS011;6583;42.632;23.298;2022-07-06T03:08:37;8.80;;;7.93;;
13032;SDS011;6583;42.632;23.298;2022-07-06T03:11:04;9.15;;;7.63;;
13032;SDS011;6583;42.632;23.298;2022-07-06T03:13:30;7.95;;;7.25;;
13032;SDS011;6583;42.632;23.298;2022-07-06T03:15:57;7.82;;;7.13;;
13032;SDS011;6583;42.632;23.298;2022-07-06T03:18:24;8.13;;;7.40;;
13032;SDS011;6583;42.632;23.298;2022-07-06T03:20:52;8.20;;;7.38;;
13032;SDS011;6583;42.632;23.298;2022-07-06T03:23:18;8.18;;;7.38;;
13032;SDS011;6583;42.632;23.298;2022-07-06T03:25:45;8.57;;;7.68;;
13032;SDS011;6583;42.632;23.298;2022-07-06T03:28:12;7.75;;;7.10;;
13032;SDS011;6583;42.632;23.298;2022-07-06T03:30:38;7.20;;;6.50;;
13032;SDS011;6583;42.632;23.298;2022-07-06T03:33:05;7.63;;;6.82;;
13032;SDS011;6583;42.632;23.298;2022-07-06T03:35:32;8.05;;;6.75;;
13032;SDS011;6583;42.632;23.298;2022-07-06T03:38:00;7.43;;;6.60;;
13032;SDS011;6583;42.632;23.298;2022-07-06T03:40:27;8.30;;;6.53;;
13032;SDS011;6583;42.632;23.298;2022-07-06T03:42:54;7.38;;;6.05;;
13032;SDS011;6583;42.632;23.298;2022-07-06T03:45:21;6.60;;;5.90;;
13032;SDS011;6583;42.632;23.298;2022-07-06T03:47:47;7.20;;;5.45;;
13032;SDS011;6583;42.632;23.298;2022-07-06T03:50:14;7.68;;;5.25;;
13032;SDS011;6583;42.632;23.298;2022-07-06T03:52:41;8.77;;;5.38;;
13032;SDS011;6583;42.632;23.298;2022-07-06T03:55:10;7.22;;;5.80;;
13032;SDS011;6583;42.632;23.298;2022-07-06T03:57:38;7.70;;;5.90;;
13032;SDS011;6583;42.632;23.298;2022-07-06T04:00:06;6.70;;;5.65;;
13032;SDS011;6583;42.632;23.298;2022-07-06T04:02:33;6.70;;;5.50;;
13032;SDS011;6583;42.632;23.298;2022-07-06T04:05:00;5.70;;;5.10;;
13032;SDS011;6583;42.632;23.298;2022-07-06T04:07:27;6.80;;;5.65;;
13032;SDS011;6583;42.632;23.298;2022-07-06T04:09:53;7.97;;;6.40;;
13032;SDS011;6583;42.632;23.298;2022-07-06T04:12:21;6.82;;;6.05;;
13032;SDS011;6583;42.632;23.298;2022-07-06T04:14:48;6.53;;;5.55;;
13032;SDS011;6583;42.632;23.298;2022-07-06T04:17:15;6.35;;;5.65;;
13032;SDS011;6583;42.632;23.298;2022-07-06T04:19:59;7.10;;;6.07;;
13032;SDS011;6583;42.632;23.298;2022-07-06T04:22:25;6.03;;;5.53;;
13032;SDS011;6583;42.632;23.298;2022-07-06T04:24:52;6.80;;;5.75;;
13032;SDS011;6583;42.632;23.298;2022-07-06T04:27:19;6.53;;;5.57;;
13032;SDS011;6583;42.632;23.298;2022-07-06T04:29:47;7.50;;;5.47;;
13032;SDS011;6583;42.632;23.298;2022-07-06T04:32:13;7.57;;;5.90;;
13032;SDS011;6583;42.632;23.298;2022-07-06T04:34:40;8.18;;;5.95;;
13032;SDS011;6583;42.632;23.298;2022-07-06T04:37:07;7.05;;;6.20;;
13032;SDS011;6583;42.632;23.298;2022-07-06T04:39:33;7.28;;;6.40;;
13032;SDS011;6583;42.632;23.298;2022-07-06T04:42:00;8.63;;;6.47;;
13032;SDS011;6583;42.632;23.298;2022-07-06T04:44:27;7.20;;;5.93;;
13032;SDS011;6583;42.632;23.298;2022-07-06T04:46:55;6.38;;;5.70;;
13032;SDS011;6583;42.632;23.298;2022-07-06T04:49:21;9.25;;;6.25;;
13032;SDS011;6583;42.632;23.298;2022-07-06T04:51:48;6.38;;;5.40;;
13032;SDS011;6583;42.632;23.298;2022-07-06T04:54:14;8.50;;;6.43;;
13032;SDS011;6583;42.632;23.298;2022-07-06T04:56:41;6.60;;;5.70;;
13032;SDS011;6583;42.632;23.298;2022-07-06T04:59:08;7.82;;;5.75;;
13032;SDS011;6583;42.632;23.298;2022-07-06T05:01:34;6.53;;;5.78;;
13032;SDS011;6583;42.632;23.298;2022-07-06T05:04:02;9.40;;;6.30;;
13032;SDS011;6583;42.632;23.298;2022-07-06T05:06:29;8.48;;;6.78;;
13032;SDS011;6583;42.632;23.298;2022-07-06T05:08:56;7.93;;;6.68;;
13032;SDS011;6583;42.632;23.298;2022-07-06T05:11:24;8.30;;;7.07;;
13032;SDS011;6583;42.632;23.298;2022-07-06T05:13:51;8.07;;;6.35;;
13032;SDS011;6583;42.632;23.298;2022-07-06T05:16:17;8.07;;;6.95;;
13032;SDS011;6583;42.632;23.298;2022-07-06T05:18:44;10.18;;;7.60;;
13032;SDS011;6583;42.632;23.298;2022-07-06T05:21:12;8.25;;;7.38;;
13032;SDS011;6583;42.632;23.298;2022-07-06T05:23:39;7.68;;;6.53;;
13032;SDS011;6583;42.632;23.298;2022-07-06T05:26:06;8.55;;;7.30;;
13032;SDS011;6583;42.632;23.298;2022-07-06T05:28:32;9.88;;;7.18;;
13032;SDS011;6583;42.632;23.298;2022-07-06T05:30:59;8.55;;;7.05;;
13032;SDS011;6583;42.632;23.298;2022-07-06T05:33:27;10.40;;;7.63;;
13032;SDS011;6583;42.632;23.298;2022-07-06T05:35:53;10.75;;;7.97;;
13032;SDS011;6583;42.632;23.298;2022-07-06T05:38:21;9.88;;;7.47;;
13032;SDS011;6583;42.632;23.298;2022-07-06T05:40:48;8.05;;;7.00;;
13032;SDS011;6583;42.632;23.298;2022-07-06T05:43:15;9.40;;;6.85;;
13032;SDS011;6583;42.632;23.298;2022-07-06T05:45:41;9.43;;;7.50;;
13032;SDS011;6583;42.632;23.298;2022-07-06T05:48:08;11.88;;;7.90;;
13032;SDS011;6583;42.632;23.298;2022-07-06T05:50:52;10.75;;;8.65;;
13032;SDS011;6583;42.632;23.298;2022-07-06T05:53:19;11.40;;;8.82;;
13032;SDS011;6583;42.632;23.298;2022-07-06T05:55:47;9.88;;;7.93;;
13032;SDS011;6583;42.632;23.298;2022-07-06T05:58:14;11.48;;;8.57;;
13032;SDS011;6583;42.632;23.298;2022-07-06T06:00:41;10.98;;;8.50;;
13032;SDS011;6583;42.632;23.298;2022-07-06T06:03:08;9.30;;;8.30;;
13032;SDS011;6583;42.632;23.298;2022-07-06T06:05:35;8.98;;;7.85;;
13032;SDS011;6583;42.632;23.298;2022-07-06T06:08:02;11.23;;;8.32;;
13032;SDS011;6583;42.632;23.298;2022-07-06T06:10:29;9.55;;;7.35;;
13032;SDS011;6583;42.632;23.298;2022-07-06T06:12:57;9.80;;;7.72;;
13032;SDS011;6583;42.632;23.298;2022-07-06T06:15:24;9.85;;;7.57;;
13032;SDS011;6583;42.632;23.298;2022-07-06T06:17:50;10.93;;;8.23;;
13032;SDS011;6583;42.632;23.298;2022-07-06T06:20:17;9.30;;;8.30;;
13032;SDS011;6583;42.632;23.298;2022-07-06T06:22:44;10.35;;;9.10;;
13032;SDS011;6583;42.632;23.298;2022-07-06T06:25:12;11.77;;;8.80;;
13032;SDS011;6583;42.632;23.298;2022-07-06T06:27:40;9.88;;;8.48;;
13032;SDS011;6583;42.632;23.298;2022-07-06T06:30:09;10.80;;;8.77;;
13032;SDS011;6583;42.632;23.298;2022-07-06T06:32:36;9.40;;;8.52;;
13032;SDS011;6583;42.632;23.298;2022-07-06T06:35:03;9.48;;;8.48;;
13032;SDS011;6583;42.632;23.298;2022-07-06T06:37:30;10.05;;;8.75;;
13032;SDS011;6583;42.632;23.298;2022-07-06T06:39:57;9.55;;;8.30;;
13032;SDS011;6583;42.632;23.298;2022-07-06T06:42:24;10.15;;;8.35;;
13032;SDS011;6583;42.632;23.298;2022-07-06T06:44:50;9.43;;;8.52;;
13032;SDS011;6583;42.632;23.298;2022-07-06T06:47:18;12.00;;;9.07;;
13032;SDS011;6583;42.632;23.298;2022-07-06T06:49:45;12.02;;;9.05;;
13032;SDS011;6583;42.632;23.298;2022-07-06T06:52:12;9.95;;;8.07;;
13032;SDS011;6583;42.632;23.298;2022-07-06T06:54:39;11.88;;;9.10;;
13032;SDS011;6583;42.632;23.298;2022-07-06T06:57:06;11.23;;;9.13;;
13032;SDS011;6583;42.632;23.298;2022-07-06T06:59:33;11.65;;;9.23;;
13032;SDS011;6583;42.632;23.298;2022-07-06T07:01:59;9.48;;;8.35;;
13032;SDS011;6583;42.632;23.298;2022-07-06T07:04:27;11.35;;;8.73;;
13032;SDS011;6583;42.632;23.298;2022-07-06T07:06:55;12.38;;;9.55;;
13032;SDS011;6583;42.632;23.298;2022-07-06T07:09:22;10.48;;;9.13;;
13032;SDS011;6583;42.632;23.298;2022-07-06T07:11:49;12.93;;;9.60;;
13032;SDS011;6583;42.632;23.298;2022-07-06T07:14:16;11.05;;;8.88;;
13032;SDS011;6583;42.632;23.298;2022-07-06T07:16:42;11.00;;;9.85;;
13032;SDS011;6583;42.632;23.298;2022-07-06T07:19:09;10.80;;;9.70;;
13032;SDS011;6583;42.632;23.298;2022-07-06T07:21:37;13.50;;;9.60;;
13032;SDS011;6583;42.632;23.298;2022-07-06T07:24:04;13.70;;;9.80;;
13032;SDS011;6583;42.632;23.298;2022-07-06T07:26:32;11.98;;;10.77;;
13032;SDS011;6583;42.632;23.298;2022-07-06T07:28:59;11.75;;;10.55;;
13032;SDS011;6583;42.632;23.298;2022-07-06T07:31:25;12.82;;;10.65;;
13032;SDS011;6583;42.632;23.298;2022-07-06T07:33:52;11.57;;;9.93;;
13032;SDS011;6583;42.632;23.298;2022-07-06T07:36:22;12.60;;;11.30;;
13032;SDS011;6583;42.632;23.298;2022-07-06T07:38:50;13.25;;;11.23;;
13032;SDS011;6583;42.632;23.298;2022-07-06T07:41:17;13.70;;;10.93;;
13032;SDS011;6583;42.632;23.298;2022-07-06T07:43:43;14.93;;;12.18;;
13032;SDS011;6583;42.632;23.298;2022-07-06T07:46:10;13.50;;;12.07;;
13032;SDS011;6583;42.632;23.298;2022-07-06T07:48:37;13.25;;;11.82;;
13032;SDS011;6583;42.632;23.298;2022-07-06T07:51:03;13.65;;;11.63;;
13032;SDS011;6583;42.632;23.298;2022-07-06T07:53:30;13.80;;;11.85;;
13032;SDS011;6583;42.632;23.298;2022-07-06T07:55:58;13.98;;;12.13;;
13032;SDS011;6583;42.632;23.298;2022-07-06T07:58:25;15.38;;;12.63;;
13032;SDS011;6583;42.632;23.298;2022-07-06T08:00:52;15.63;;;12.38;;
13032;SDS011;6583;42.632;23.298;2022-07-06T08:03:18;13.73;;;12.30;;
13032;SDS011;6583;42.632;23.298;2022-07-06T08:05:45;14.80;;;13.18;;
13032;SDS011;6583;42.632;23.298;2022-07-06T08:08:13;13.50;;;12.07;;
13032;SDS011;6583;42.632;23.298;2022-07-06T08:10:40;13.27;;;11.85;;
13032;SDS011;6583;42.632;23.298;2022-07-06T08:13:08;12.85;;;11.45;;
13032;SDS011;6583;42.632;23.298;2022-07-06T08:15:35;12.13;;;10.65;;
13032;SDS011;6583;42.632;23.298;2022-07-06T08:18:02;12.27;;;10.70;;
13032;SDS011;6583;42.632;23.298;2022-07-06T08:20:29;11.82;;;10.60;;
13032;SDS011;6583;42.632;23.298;2022-07-06T08:22:56;12.25;;;9.90;;
13032;SDS011;6583;42.632;23.298;2022-07-06T08:25:23;11.68;;;10.48;;
13032;SDS011;6583;42.632;23.298;2022-07-06T08:27:50;11.07;;;9.98;;
13032;SDS011;6583;42.632;23.298;2022-07-06T08:30:18;10.80;;;9.70;;
13032;SDS011;6583;42.632;23.298;2022-07-06T08:32:44;12.77;;;9.65;;
13032;SDS011;6583;42.632;23.298;2022-07-06T08:35:12;10.63;;;9.52;;
13032;SDS011;6583;42.632;23.298;2022-07-06T08:37:38;10.98;;;9.88;;
13032;SDS011;6583;42.632;23.298;2022-07-06T08:40:05;10.43;;;9.48;;
13032;SDS011;6583;42.632;23.298;2022-07-06T08:42:33;11.77;;;9.35;;
13032;SDS011;6583;42.632;23.298;2022-07-06T08:45:01;10.20;;;9.23;;
13032;SDS011;6583;42.632;23.298;2022-07-06T08:47:30;10.63;;;9.60;;
13032;SDS011;6583;42.632;23.298;2022-07-06T08:49:57;12.50;;;10.50;;
13032;SDS011;6583;42.632;23.298;2022-07-06T08:52:24;10.60;;;9.60;;
13032;SDS011;6583;42.632;23.298;2022-07-06T08:54:51;11.52;;;10.43;;
13032;SDS011;6583;42.632;23.298;2022-07-06T08:57:18;11.43;;;10.32;;
13032;SDS011;6583;42.632;23.298;2022-07-06T08:59:45;12.60;;;10.90;;
13032;SDS011;6583;42.632;23.298;2022-07-06T09:02:11;12.60;;;10.95;;
13032;SDS011;6583;42.632;23.298;2022-07-06T09:04:41;10.80;;;9.73;;
13032;SDS011;6583;42.632;23.298;2022-07-06T09:07:09;11.15;;;10.00;;
13032;SDS011;6583;42.632;23.298;2022-07-06T09:09:36;11.02;;;9.82;;
13032;SDS011;6583;42.632;23.298;2022-07-06T09:12:04;10.65;;;9.60;;
13032;SDS011;6583;42.632;23.298;2022-07-06T09:14:35;13.18;;;10.48;;
13032;SDS011;6583;42.632;23.298;2022-07-06T09:17:04;10.65;;;9.65;;
13032;SDS011;6583;42.632;23.298;2022-07-06T09:19:32;10.93;;;9.82;;
13032;SDS011;6583;42.632;23.298;2022-07-06T09:22:01;10.60;;;9.60;;
13032;SDS011;6583;42.632;23.298;2022-07-06T09:24:29;12.23;;;9.85;;
13032;SDS011;6583;42.632;23.298;2022-07-06T09:26:57;11.43;;;10.32;;
13032;SDS011;6583;42.632;23.298;2022-07-06T09:29:26;10.73;;;9.43;;
13032;SDS011;6583;42.632;23.298;2022-07-06T09:31:57;11.55;;;10.25;;
13032;SDS011;6583;42.632;23.298;2022-07-06T09:34:25;11.25;;;10.18;;
13032;SDS011;6583;42.632;23.298;2022-07-06T09:37:07;11.52;;;10.32;;
13032;SDS011;6583;42.632;23.298;2022-07-06T09:39:34;10.75;;;9.30;;
13032;SDS011;6583;42.632;23.298;2022-07-06T09:42:03;11.00;;;9.90;;
13032;SDS011;6583;42.632;23.298;2022-07-06T09:44:33;10.63;;;9.63;;
13032;SDS011;6583;42.632;23.298;2022-07-06T09:47:02;10.80;;;9.70;;
13032;SDS011;6583;42.632;23.298;2022-07-06T09:49:30;10.30;;;9.30;;
13032;SDS011;6583;42.632;23.298;2022-07-06T09:51:58;11.23;;;10.07;;
13032;SDS011;6583;42.632;23.298;2022-07-06T09:54:27;10.75;;;9.65;;
13032;SDS011;6583;42.632;23.298;2022-07-06T09:56:54;11.65;;;10.25;;
13032;SDS011;6583;42.632;23.298;2022-07-06T09:59:22;12.45;;;11.25;;
13032;SDS011;6583;42.632;23.298;2022-07-06T10:01:50;12.48;;;11.05;;
13032;SDS011;6583;42.632;23.298;2022-07-06T10:04:19;13.15;;;11.73;;
13032;SDS011;6583;42.632;23.298;2022-07-06T10:06:47;13.80;;;11.82;;
13032;SDS011;6583;42.632;23.298;2022-07-06T10:09:14;13.15;;;11.85;;
13032;SDS011;6583;42.632;23.298;2022-07-06T10:11:44;14.25;;;12.85;;
13032;SDS011;6583;42.632;23.298;2022-07-06T10:14:15;14.27;;;12.77;;
13032;SDS011;6583;42.632;23.298;2022-07-06T10:16:44;14.18;;;12.55;;
13032;SDS011;6583;42.632;23.298;2022-07-06T10:19:12;14.45;;;13.05;;
13032;SDS011;6583;42.632;23.298;2022-07-06T10:21:40;13.95;;;12.50;;
13032;SDS011;6583;42.632;23.298;2022-07-06T10:24:08;14.73;;;13.23;;
13032;SDS011;6583;42.632;23.298;2022-07-06T10:26:36;14.43;;;12.85;;
13032;SDS011;6583;42.632;23.298;2022-07-06T10:29:05;13.77;;;12.38;;
13032;SDS011;6583;42.632;23.298;2022-07-06T10:31:32;14.65;;;13.15;;
13032;SDS011;6583;42.632;23.298;2022-07-06T10:34:00;14.35;;;12.85;;
13032;SDS011;6583;42.632;23.298;2022-07-06T10:36:30;13.85;;;12.15;;
13032;SDS011;6583;42.632;23.298;2022-07-06T10:38:57;13.55;;;12.15;;
13032;SDS011;6583;42.632;23.298;2022-07-06T10:41:43;13.48;;;12.05;;
13032;SDS011;6583;42.632;23.298;2022-07-06T10:44:17;14.15;;;12.75;;
13032;SDS011;6583;42.632;23.298;2022-07-06T10:46:49;14.23;;;12.55;;
13032;SDS011;6583;42.632;23.298;2022-07-06T10:49:17;14.85;;;13.30;;
13032;SDS011;6583;42.632;23.298;2022-07-06T10:51:44;13.00;;;11.70;;
13032;SDS011;6583;42.632;23.298;2022-07-06T10:54:11;18.20;;;13.35;;
13032;SDS011;6583;42.632;23.298;2022-07-06T10:56:38;15.65;;;12.68;;
13032;SDS011;6583;42.632;23.298;2022-07-06T10:59:08;13.10;;;11.73;;
13032;SDS011;6583;42.632;23.298;2022-07-06T11:01:37;12.95;;;11.65;;
13032;SDS011;6583;42.632;23.298;2022-07-06T11:04:05;13.05;;;11.75;;
13032;SDS011;6583;42.632;23.298;2022-07-06T11:06:34;12.88;;;11.57;;
13032;SDS011;6583;42.632;23.298;2022-07-06T11:09:03;13.75;;;12.35;;
13032;SDS011;6583;42.632;23.298;2022-07-06T11:11:37;14.32;;;12.82;;
13032;SDS011;6583;42.632;23.298;2022-07-06T11:14:07;14.32;;;12.82;;
13032;SDS011;6583;42.632;23.298;2022-07-06T11:16:38;14.25;;;12.77;;
13032;SDS011;6583;42.632;23.298;2022-07-06T11:19:07;13.95;;;12.30;;
13032;SDS011;6583;42.632;23.298;2022-07-06T11:21:36;14.02;;;12.57;;
13032;SDS011;6583;42.632;23.298;2022-07-06T11:24:06;13.93;;;12.50;;
13032;SDS011;6583;42.632;23.298;2022-07-06T11:26:34;14.40;;;13.00;;
13032;SDS011;6583;42.632;23.298;2022-07-06T11:29:03;15.30;;;13.27;;
13032;SDS011;6583;42.632;23.298;2022-07-06T11:31:33;15.38;;;13.13;;
13032;SDS011;6583;42.632;23.298;2022-07-06T11:34:01;14.60;;;13.13;;
13032;SDS011;6583;42.632;23.298;2022-07-06T11:36:28;14.95;;;13.38;;
13032;SDS011;6583;42.632;23.298;2022-07-06T11:38:55;15.68;;;14.07;;
13032;SDS011;6583;42.632;23.298;2022-07-06T11:41:22;16.05;;;14.25;;
13032;SDS011;6583;42.632;23.298;2022-07-06T11:43:48;15.25;;;13.65;;
13032;SDS011;6583;42.632;23.298;2022-07-06T11:46:23;16.40;;;14.63;;
13032;SDS011;6583;42.632;23.298;2022-07-06T11:48:51;13.82;;;12.52;;
13032;SDS011;6583;42.632;23.298;2022-07-06T11:51:21;14.55;;;13.15;;
13032;SDS011;6583;42.632;23.298;2022-07-06T11:53:49;15.90;;;14.30;;
13032;SDS011;6583;42.632;23.298;2022-07-06T11:56:16;13.90;;;12.45;;
13032;SDS011;6583;42.632;23.298;2022-07-06T11:58:46;13.88;;;12.48;;
13032;SDS011;6583;42.632;23.298;2022-07-06T12:01:15;14.52;;;13.13;;
13032;SDS011;6583;42.632;23.298;2022-07-06T12:03:42;14.45;;;12.95;;
13032;SDS011;6583;42.632;23.298;2022-07-06T12:06:13;13.98;;;12.63;;
13032;SDS011;6583;42.632;23.298;2022-07-06T12:08:44;15.40;;;13.80;;
13032;SDS011;6583;42.632;23.298;2022-07-06T12:11:16;12.60;;;11.45;;
13032;SDS011;6583;42.632;23.298;2022-07-06T12:13:45;13.88;;;12.48;;
13032;SDS011;6583;42.632;23.298;2022-07-06T12:16:12;15.82;;;13.93;;
13032;SDS011;6583;42.632;23.298;2022-07-06T12:18:41;15.15;;;13.60;;
13032;SDS011;6583;42.632;23.298;2022-07-06T12:21:08;14.43;;;12.93;;
13032;SDS011;6583;42.632;23.298;2022-07-06T12:23:38;15.98;;;14.27;;
13032;SDS011;6583;42.632;23.298;2022-07-06T12:26:08;16.58;;;14.88;;
13032;SDS011;6583;42.632;23.298;2022-07-06T12:28:36;15.35;;;13.95;;
13032;SDS011;6583;42.632;23.298;2022-07-06T12:31:03;13.57;;;12.18;;
13032;SDS011;6583;42.632;23.298;2022-07-06T12:33:29;14.40;;;12.80;;
13032;SDS011;6583;42.632;23.298;2022-07-06T12:35:56;13.73;;;12.32;;
13032;SDS011;6583;42.632;23.298;2022-07-06T12:38:24;13.95;;;12.45;;
13032;SDS011;6583;42.632;23.298;2022-07-06T12:40:51;13.05;;;11.85;;
13032;SDS011;6583;42.632;23.298;2022-07-06T12:43:35;13.63;;;12.32;;
13032;SDS011;6583;42.632;23.298;2022-07-06T12:48:55;13.07;;;11.77;;
13032;SDS011;6583;42.632;23.298;2022-07-06T12:51:23;11.02;;;10.05;;
13032;SDS011;6583;42.632;23.298;2022-07-06T12:53:50;9.98;;;9.07;;
13032;SDS011;6583;42.632;23.298;2022-07-06T12:56:17;10.77;;;9.77;;
13032;SDS011;6583;42.632;23.298;2022-07-06T12:58:59;10.35;;;9.45;;
13032;SDS011;6583;42.632;23.298;2022-07-06T13:01:26;11.02;;;10.10;;
13032;SDS011;6583;42.632;23.298;2022-07-06T13:03:54;10.65;;;9.55;;
13032;SDS011;6583;42.632;23.298;2022-07-06T13:06:31;11.25;;;10.23;;
13032;SDS011;6583;42.632;23.298;2022-07-06T13:08:59;11.25;;;10.23;;
13032;SDS011;6583;42.632;23.298;2022-07-06T13:11:26;11.10;;;10.10;;
13032;SDS011;6583;42.632;23.298;2022-07-06T13:13:52;11.05;;;10.05;;
13032;SDS011;6583;42.632;23.298;2022-07-06T13:16:21;10.52;;;9.55;;
13032;SDS011;6583;42.632;23.298;2022-07-06T13:18:49;10.10;;;9.10;;
13032;SDS011;6583;42.632;23.298;2022-07-06T13:21:16;9.38;;;8.57;;
13032;SDS011;6583;42.632;23.298;2022-07-06T13:23:42;9.18;;;8.25;;
13032;SDS011;6583;42.632;23.298;2022-07-06T13:26:09;8.95;;;8.15;;
13032;SDS011;6583;42.632;23.298;2022-07-06T13:28:36;8.88;;;8.02;;
13032;SDS011;6583;42.632;23.298;2022-07-06T13:31:02;8.63;;;7.93;;
13032;SDS011;6583;42.632;23.298;2022-07-06T13:33:30;7.25;;;6.65;;
13032;SDS011;6583;42.632;23.298;2022-07-06T13:35:57;8.43;;;7.63;;
13032;SDS011;6583;42.632;23.298;2022-07-06T13:38:24;7.63;;;6.93;;
13032;SDS011;6583;42.632;23.298;2022-07-06T13:40:51;7.32;;;6.63;;
13032;SDS011;6583;42.632;23.298;2022-07-06T13:43:17;7.32;;;6.70;;
13032;SDS011;6583;42.632;23.298;2022-07-06T13:45:45;7.10;;;6.50;;
13032;SDS011;6583;42.632;23.298;2022-07-06T13:48:12;7.10;;;6.50;;
13032;SDS011;6583;42.632;23.298;2022-07-06T13:50:40;6.40;;;5.90;;
13032;SDS011;6583;42.632;23.298;2022-07-06T13:53:07;6.22;;;5.72;;
13032;SDS011;6583;42.632;23.298;2022-07-06T13:55:33;5.95;;;5.38;;
13032;SDS011;6583;42.632;23.298;2022-07-06T13:58:01;5.78;;;5.20;;
13032;SDS011;6583;42.632;23.298;2022-07-06T14:00:28;5.72;;;4.53;;
13032;SDS011;6583;42.632;23.298;2022-07-06T14:02:55;5.07;;;4.68;;
13032;SDS011;6583;42.632;23.298;2022-07-06T14:05:22;4.22;;;3.95;;
13032;SDS011;6583;42.632;23.298;2022-07-06T14:07:50;3.58;;;3.38;;
13032;SDS011;6583;42.632;23.298;2022-07-06T14:10:16;4.05;;;3.75;;
13032;SDS011;6583;42.632;23.298;2022-07-06T14:12:43;4.30;;;3.97;;
13032;SDS011;6583;42.632;23.298;2022-07-06T14:15:10;4.32;;;3.92;;
13032;SDS011;6583;42.632;23.298;2022-07-06T14:17:37;3.67;;;3.42;;
13032;SDS011;6583;42.632;23.298;2022-07-06T14:20:04;3.65;;;3.40;;
13032;SDS011;6583;42.632;23.298;2022-07-06T14:22:31;4.32;;;3.63;;
13032;SDS011;6583;42.632;23.298;2022-07-06T14:24:59;3.78;;;3.47;;
13032;SDS011;6583;42.632;23.298;2022-07-06T14:27:26;3.78;;;3.47;;
13032;SDS011;6583;42.632;23.298;2022-07-06T14:29:52;3.90;;;3.60;;
13032;SDS011;6583;42.632;23.298;2022-07-06T14:32:19;3.85;;;3.28;;
13032;SDS011;6583;42.632;23.298;2022-07-06T14:34:46;5.25;;;4.00;;
13032;SDS011;6583;42.632;23.298;2022-07-06T14:37:12;3.95;;;3.75;;
13032;SDS011;6583;42.632;23.298;2022-07-06T14:39:39;3.38;;;3.17;;
13032;SDS011;6583;42.632;23.298;2022-07-06T14:42:07;3.85;;;3.50;;
13032;SDS011;6583;42.632;23.298;2022-07-06T14:44:34;3.80;;;3.60;;